Terminal Aerodrome Forecast
Issued by NWS

Home | Current Version | Previous Version | Text Only | Print | Product List | Glossary On
Versions: 1 2 3 4 5 6 7 8 9 10 11 12 13 14 15 16 17 18 19 20 21
440
FTUS44 KLIX 210921 AAB
TAFMCB
TAF AMD
KMCB 210921Z 2109/2206 VRB03KT P6SM -RA BKN005 OVC080
     FM211400 27005KT P6SM VCSH BKN025
     FM220000 VRB03KT P6SM BKN050=

USA.gov is the U.S. government's official web portal to all federal, state and local government web resources and services.